createdAt,value
2019-05-25T00:00:30.707Z,97789.71
2019-05-25T00:04:35.554Z,97797.02
2019-05-25T00:08:40.445Z,97790.59
2019-05-25T00:12:45.348Z,97792.25
2019-05-25T00:16:51.209Z,97798.94
2019-05-25T00:20:56.103Z,97798.27
2019-05-25T00:25:01.000Z,97795.66
2019-05-25T00:29:05.892Z,97796.11
2019-05-25T00:33:10.788Z,97797.03
2019-05-25T00:37:15.692Z,97799.69
2019-05-25T00:41:20.662Z,97791.77
2019-05-25T00:45:25.556Z,97801.87
2019-05-25T00:49:30.456Z,97795.94
2019-05-25T00:53:35.356Z,97796.11
2019-05-25T00:57:40.254Z,97792.62
2019-05-25T01:01:45.150Z,97785.76
2019-05-25T01:05:50.046Z,97785.94
2019-05-25T01:09:54.939Z,97785.94
2019-05-25T01:13:59.836Z,97797.14
2019-05-25T01:18:04.872Z,97798.94
2019-05-25T01:22:09.776Z,97806.56
2019-05-25T01:26:14.670Z,97807.23
2019-05-25T01:30:19.946Z,97803.08
2019-05-25T01:34:24.829Z,97802.14
2019-05-25T01:38:29.724Z,97804.87
2019-05-25T01:42:34.795Z,97800.84
2019-05-25T01:46:40.762Z,97804.57
2019-05-25T01:50:45.669Z,97809.30
2019-05-25T01:54:59.435Z,97816.34
2019-05-25T01:58:57.156Z,97812.34
2019-05-25T02:03:02.093Z,97789.98
2019-05-25T02:07:06.971Z,97806.57
2019-05-25T02:11:11.865Z,97812.96
2019-05-25T02:15:16.827Z,97816.14
2019-05-25T02:19:21.798Z,97813.81
2019-05-25T02:23:26.694Z,97816.91
2019-05-25T02:27:31.600Z,97816.91
2019-05-25T02:31:36.476Z,97807.53
2019-05-25T02:35:41.387Z,97806.22
2019-05-25T02:39:46.280Z,97806.22
2019-05-25T02:43:51.175Z,97790.61
2019-05-25T02:47:56.073Z,97790.61
2019-05-25T02:52:00.965Z,97783.63
2019-05-25T02:56:05.934Z,97783.63
2019-05-25T03:00:11.844Z,97812.66
2019-05-25T03:04:17.480Z,97808.13
2019-05-25T03:08:22.387Z,97811.69
2019-05-25T03:12:27.618Z,97790.77
2019-05-25T03:16:32.500Z,97810.72
2019-05-25T03:20:37.403Z,97813.20
2019-05-25T03:24:42.299Z,97821.96
2019-05-25T03:28:47.197Z,97819.36
2019-05-25T03:32:52.112Z,97822.27
2019-05-25T03:36:56.985Z,97824.36
2019-05-25T03:41:01.884Z,97826.22
2019-05-25T03:45:07.866Z,97825.67
2019-05-25T03:49:13.691Z,97826.50
2019-05-25T03:53:18.594Z,97831.41
2019-05-25T03:57:23.481Z,97831.11
2019-05-25T04:01:28.449Z,97832.81
2019-05-25T04:05:33.340Z,97833.51
2019-05-25T04:09:38.239Z,97834.31
2019-05-25T04:13:43.130Z,97837.70
2019-05-25T04:17:48.021Z,97835.41
2019-05-25T04:21:52.917Z,97817.38
2019-05-25T04:25:57.813Z,97822.16
2019-05-25T04:30:02.796Z,97810.42
2019-05-25T04:34:07.757Z,97841.16
2019-05-25T04:38:12.642Z,97835.97
2019-05-25T04:42:17.544Z,97849.07
2019-05-25T04:46:22.434Z,97852.56
2019-05-25T04:50:27.339Z,97857.55
2019-05-25T04:54:32.236Z,97858.80
2019-05-25T04:58:37.149Z,97855.47
2019-05-25T05:02:42.046Z,97863.50
2019-05-25T05:06:46.980Z,97869.86
2019-05-25T05:10:51.854Z,97876.46
2019-05-25T05:14:56.760Z,97874.75
2019-05-25T05:19:01.654Z,97881.09
2019-05-25T05:23:06.554Z,97885.84
2019-05-25T05:27:11.457Z,97882.48
2019-05-25T05:31:23.580Z,97887.87
2019-05-25T05:35:22.941Z,97886.92
2019-05-25T05:39:28.379Z,97886.47
2019-05-25T05:43:34.717Z,97887.36
2019-05-25T05:47:41.270Z,97880.35
2019-05-25T05:51:50.508Z,97890.33
2019-05-25T05:55:55.407Z,97891.89
2019-05-25T06:00:00.297Z,97894.84
2019-05-25T06:04:05.261Z,97889.52
2019-05-25T06:08:10.161Z,97899.09
2019-05-25T06:12:15.055Z,97908.80
2019-05-25T06:16:19.948Z,97907.17
2019-05-25T06:20:24.845Z,97905.93
2019-05-25T06:24:29.750Z,97904.72
2019-05-25T06:28:34.655Z,97903.72
2019-05-25T06:32:39.563Z,97909.80
2019-05-25T06:36:44.460Z,97896.58
2019-05-25T06:40:49.356Z,97910.61
2019-05-25T06:44:54.257Z,97905.39
2019-05-25T06:48:59.158Z,97912.91
2019-05-25T06:53:04.055Z,97913.94
2019-05-25T06:57:08.934Z,97912.52
2019-05-25T07:01:13.857Z,97914.59
2019-05-25T07:05:18.756Z,97913.44
2019-05-25T07:09:23.659Z,97919.50
2019-05-25T07:13:28.799Z,97918.52
2019-05-25T07:17:33.727Z,97922.73
2019-05-25T07:21:38.634Z,97921.75
2019-05-25T07:25:43.533Z,97923.14
2019-05-25T07:29:48.438Z,97931.70
2019-05-25T07:33:53.327Z,97937.12
2019-05-25T07:37:58.224Z,97933.83
2019-05-25T07:42:03.294Z,97938.19
2019-05-25T07:46:08.166Z,97942.33
2019-05-25T07:50:13.908Z,97936.28
2019-05-25T07:54:18.812Z,97950.81
2019-05-25T07:58:23.705Z,97943.90
2019-05-25T08:02:28.610Z,97948.55
2019-05-25T08:06:33.521Z,97937.22
2019-05-25T08:10:38.414Z,97940.03
2019-05-25T08:14:45.150Z,97941.23
2019-05-25T08:18:50.084Z,97948.96
2019-05-25T08:22:54.982Z,97955.36
2019-05-25T08:26:59.949Z,97952.68
2019-05-25T08:31:04.923Z,97944.86
2019-05-25T08:35:10.461Z,97955.84
2019-05-25T08:39:15.335Z,97950.03
2019-05-25T08:43:20.241Z,97955.66
2019-05-25T08:47:25.143Z,97957.70
2019-05-25T08:51:30.038Z,97950.53
2019-05-25T08:55:35.512Z,97960.28
2019-05-25T08:59:40.407Z,97959.45
2019-05-25T09:03:45.295Z,97962.98
2019-05-25T09:07:50.211Z,97958.91
2019-05-25T09:11:55.113Z,97957.34
2019-05-25T09:16:00.014Z,97948.88
2019-05-25T09:20:08.481Z,97958.92
2019-05-25T09:24:13.385Z,97954.78
2019-05-25T09:28:18.315Z,97949.36
2019-05-25T09:32:24.266Z,97953.15
2019-05-25T09:36:30.144Z,97958.35
2019-05-25T09:40:35.023Z,97956.11
2019-05-25T09:44:39.924Z,97950.34
2019-05-25T09:48:44.826Z,97957.28
2019-05-25T09:52:49.731Z,97954.99
2019-05-25T09:56:54.631Z,97958.14
2019-05-25T10:00:59.538Z,97962.58
2019-05-25T10:05:06.393Z,97957.15
2019-05-25T10:09:11.285Z,97951.75
2019-05-25T10:13:16.186Z,97953.71
2019-05-25T10:17:21.100Z,97949.25
2019-05-25T10:21:25.989Z,97948.91
2019-05-25T10:25:30.887Z,97943.58
2019-05-25T10:29:37.593Z,97941.00
2019-05-25T10:33:42.430Z,97942.55
2019-05-25T10:37:47.322Z,97948.29
2019-05-25T10:41:52.222Z,97943.23
2019-05-25T10:45:57.119Z,97946.73
2019-05-25T10:50:02.097Z,97945.22
2019-05-25T10:54:06.989Z,97952.16
2019-05-25T10:58:11.897Z,97944.18
2019-05-25T11:02:16.788Z,97949.72
2019-05-25T11:06:21.689Z,97948.52
2019-05-25T11:10:26.592Z,97938.26
2019-05-25T11:14:31.504Z,97935.95
2019-05-25T11:18:36.405Z,97935.84
2019-05-25T11:22:41.306Z,97934.80
2019-05-25T11:26:46.197Z,97929.39
2019-05-25T11:30:51.103Z,97922.42
2019-05-25T11:34:56.006Z,97918.31
2019-05-25T11:39:00.909Z,97918.72
2019-05-25T11:43:05.967Z,97916.57
2019-05-25T11:47:11.938Z,97910.39
2019-05-25T11:51:16.847Z,97907.44
2019-05-25T11:55:21.815Z,97900.66
2019-05-25T11:59:26.712Z,97896.78
2019-05-25T12:03:31.604Z,97889.94
2019-05-25T12:07:36.576Z,97895.80
2019-05-25T12:11:41.470Z,97896.53
2019-05-25T12:15:46.361Z,97892.33
2019-05-25T12:19:51.262Z,97881.95
2019-05-25T12:23:56.169Z,97884.02
2019-05-25T12:28:01.065Z,97890.08
2019-05-25T12:32:06.024Z,97890.89
2019-05-25T12:36:12.066Z,97876.19
2019-05-25T12:40:17.038Z,97878.31
2019-05-25T12:44:21.921Z,97872.44
2019-05-25T12:48:26.838Z,97873.46
2019-05-25T12:52:31.734Z,97873.70
2019-05-25T12:56:36.722Z,97866.35
2019-05-25T13:00:55.161Z,97862.41
2019-05-25T13:04:48.182Z,97870.11
2019-05-25T13:08:53.840Z,97864.95
2019-05-25T13:13:01.916Z,97852.59
2019-05-25T13:17:05.400Z,97850.66
2019-05-25T13:21:10.295Z,97844.48
2019-05-25T13:25:15.435Z,97848.61
2019-05-25T13:29:20.337Z,97841.14
2019-05-25T13:33:25.234Z,97848.45
2019-05-25T13:37:30.128Z,97848.22
2019-05-25T13:41:35.101Z,97845.55
2019-05-25T13:45:39.989Z,97840.74
2019-05-25T13:49:44.895Z,97839.66
2019-05-25T13:53:49.794Z,97837.81
2019-05-25T13:57:54.694Z,97835.73
2019-05-25T14:01:59.601Z,97836.61
2019-05-25T14:06:04.557Z,97829.55
2019-05-25T14:10:09.530Z,97828.60
2019-05-25T14:14:14.468Z,97830.63
2019-05-25T14:18:19.362Z,97835.60
2019-05-25T14:22:24.254Z,97838.36
2019-05-25T14:26:29.155Z,97827.67
2019-05-25T14:30:34.052Z,97829.22
2019-05-25T14:34:38.954Z,97834.14
2019-05-25T14:38:43.860Z,97826.95
2019-05-25T14:42:48.754Z,97822.72
2019-05-25T14:46:53.652Z,97821.80
2019-05-25T14:50:58.555Z,97820.78
2019-05-25T14:55:05.333Z,97817.21
2019-05-25T14:59:10.231Z,97824.17
2019-05-25T15:03:15.123Z,97833.16
2019-05-25T15:07:20.022Z,97823.50
2019-05-25T15:11:24.926Z,97824.04
2019-05-25T15:15:29.900Z,97821.99
2019-05-25T15:19:34.813Z,97824.41
2019-05-25T15:23:39.711Z,97826.23
2019-05-25T15:27:44.624Z,97815.33
2019-05-25T15:31:49.518Z,97813.92
2019-05-25T15:35:54.431Z,97817.14
2019-05-25T15:39:59.340Z,97812.92
2019-05-25T15:44:04.497Z,97816.34
2019-05-25T15:48:09.398Z,97813.25
2019-05-25T15:52:14.302Z,97821.02
2019-05-25T15:56:19.203Z,97817.16
2019-05-25T16:00:30.132Z,97826.59
2019-05-25T16:04:35.727Z,97826.17
2019-05-25T16:08:40.809Z,97821.26
2019-05-25T16:12:45.714Z,97820.18
2019-05-25T16:16:50.619Z,97821.75
2019-05-25T16:20:55.520Z,97832.26
2019-05-25T16:25:00.412Z,97829.46
2019-05-25T16:29:05.330Z,97839.23
2019-05-25T16:33:13.098Z,97840.08
2019-05-25T16:37:17.117Z,97837.89
2019-05-25T16:41:22.114Z,97846.63
2019-05-25T16:45:27.006Z,97843.86
2019-05-25T16:49:31.917Z,97848.28
2019-05-25T16:53:36.826Z,97846.58
2019-05-25T16:57:41.723Z,97845.78
2019-05-25T17:01:48.494Z,97847.77
2019-05-25T17:05:53.220Z,97850.88
2019-05-25T17:09:58.133Z,97852.52
2019-05-25T17:14:04.086Z,97855.05
2019-05-25T17:18:09.059Z,97852.77
2019-05-25T17:22:13.968Z,97851.97
2019-05-25T17:26:18.866Z,97863.88
2019-05-25T17:30:44.482Z,97857.15
2019-05-25T17:34:49.383Z,97854.82
2019-05-25T17:38:54.298Z,97871.89
2019-05-25T17:42:59.194Z,97869.92
2019-05-25T17:47:04.093Z,97871.00
2019-05-25T17:51:08.993Z,97877.76
2019-05-25T17:55:14.502Z,97887.09
2019-05-25T17:59:19.408Z,97879.52
2019-05-25T18:03:24.320Z,97884.59
2019-05-25T18:07:29.202Z,97894.72
2019-05-25T18:11:34.109Z,97902.04
2019-05-25T18:15:39.013Z,97904.43
2019-05-25T18:19:43.920Z,97900.21
2019-05-25T18:23:48.819Z,97902.20
2019-05-25T18:27:53.716Z,97896.73
2019-05-25T18:31:58.613Z,97898.06
2019-05-25T18:36:03.517Z,97897.91
2019-05-25T18:40:09.666Z,97900.21
2019-05-25T18:44:14.559Z,97898.96
2019-05-25T18:48:19.463Z,97899.78
2019-05-25T18:52:24.354Z,97914.91
2019-05-25T18:56:29.255Z,97909.36
2019-05-25T19:00:34.160Z,97915.00
2019-05-25T19:04:46.137Z,97912.61
2019-05-25T19:08:45.690Z,97916.30
2019-05-25T19:12:50.573Z,97917.70
2019-05-25T19:16:55.473Z,97925.05
2019-05-25T19:21:00.369Z,97922.66
2019-05-25T19:25:08.456Z,97924.86
2019-05-25T19:29:13.366Z,97929.78
2019-05-25T19:33:18.238Z,97929.52
2019-05-25T19:37:23.139Z,97936.04
2019-05-25T19:41:28.039Z,97947.34
2019-05-25T19:45:34.009Z,97956.47
2019-05-25T19:49:38.899Z,97969.77
2019-05-25T19:53:43.808Z,97977.03
2019-05-25T19:57:48.712Z,97982.32
2019-05-25T20:01:53.604Z,97993.48
2019-05-25T20:05:58.499Z,97991.92
2019-05-25T20:10:04.866Z,98003.78
2019-05-25T20:14:09.765Z,98009.97
2019-05-25T20:18:15.628Z,98012.22
2019-05-25T20:22:21.006Z,98013.55
2019-05-25T20:26:25.896Z,98015.76
2019-05-25T20:30:30.859Z,98009.45
2019-05-25T20:34:35.684Z,98011.08
2019-05-25T20:38:40.584Z,98015.81
2019-05-25T20:42:45.482Z,98013.49
2019-05-25T20:46:50.378Z,98021.80
2019-05-25T20:50:55.262Z,98024.11
2019-05-25T20:55:00.161Z,98024.38
2019-05-25T20:59:05.055Z,98038.81
2019-05-25T21:03:09.955Z,98032.20
2019-05-25T21:07:14.860Z,98032.66
2019-05-25T21:11:19.739Z,98032.86
2019-05-25T21:15:24.641Z,98038.06
2019-05-25T21:19:29.539Z,98038.96
2019-05-25T21:23:34.435Z,98047.16
2019-05-25T21:27:39.329Z,98041.98
2019-05-25T21:31:44.215Z,98041.34
2019-05-25T21:36:06.429Z,98037.14
2019-05-25T21:39:55.706Z,98038.25
2019-05-25T21:44:00.613Z,98043.00
2019-05-25T21:48:05.869Z,98039.77
2019-05-25T21:52:10.751Z,98040.11
2019-05-25T21:56:15.642Z,98039.97
2019-05-25T22:00:22.817Z,98036.50
2019-05-25T22:04:29.313Z,98026.27
2019-05-25T22:08:34.209Z,98030.58
2019-05-25T22:12:40.374Z,98021.15
2019-05-25T22:16:46.543Z,98025.32
2019-05-25T22:20:51.447Z,98025.75
2019-05-25T22:24:56.340Z,98027.61
2019-05-25T22:29:01.248Z,98027.90
2019-05-25T22:33:06.143Z,98027.90
2019-05-25T22:37:11.034Z,98029.21
2019-05-25T22:41:19.689Z,98017.13
2019-05-25T22:45:22.536Z,98018.52
2019-05-25T22:49:27.437Z,98020.47
2019-05-25T22:53:32.336Z,98016.41
2019-05-25T22:57:38.286Z,98018.23
2019-05-25T23:01:43.180Z,98019.49
2019-05-25T23:05:48.070Z,98017.17
2019-05-25T23:09:52.984Z,98023.52
2019-05-25T23:13:57.870Z,98022.30
2019-05-25T23:18:02.761Z,98018.25
2019-05-25T23:22:07.657Z,98021.67
2019-05-25T23:26:12.553Z,98015.83
2019-05-25T23:30:18.787Z,98017.98
2019-05-25T23:34:23.741Z,98023.73
2019-05-25T23:38:28.708Z,98018.02
2019-05-25T23:42:33.609Z,98017.23
2019-05-25T23:46:38.504Z,98010.99
2019-05-25T23:50:43.410Z,98002.44
2019-05-25T23:54:48.308Z,98003.75
2019-05-25T23:58:53.202Z,98002.66
